createdAt,value
2017-05-16T00:00:11.524Z,89.5
2017-05-16T00:01:24.317Z,89.4
2017-05-16T00:02:37.110Z,89.5
2017-05-16T00:03:49.900Z,89.89
2017-05-16T00:05:02.683Z,90.08
2017-05-16T00:06:14.993Z,90.08
2017-05-16T00:07:27.784Z,90.17
2017-05-16T00:08:40.571Z,90.37
2017-05-16T00:09:52.871Z,90.27
2017-05-16T00:11:05.957Z,90.46
2017-05-16T00:12:18.260Z,90.46
2017-05-16T00:13:30.569Z,90.17
2017-05-16T00:14:42.894Z,90.37
2017-05-16T00:15:55.681Z,90.17
2017-05-16T00:17:08.668Z,90.46
2017-05-16T00:18:21.454Z,90.17
2017-05-16T00:19:34.310Z,90.66
2017-05-16T00:20:47.123Z,90.37
2017-05-16T00:22:00.213Z,90.27
2017-05-16T00:23:13.024Z,90.75
2017-05-16T00:24:25.325Z,90.56
2017-05-16T00:25:38.108Z,90.17
2017-05-16T00:26:50.892Z,90.27
2017-05-16T00:28:03.675Z,90.37
2017-05-16T00:29:16.465Z,89.98
2017-05-16T00:30:29.251Z,90.08
2017-05-16T00:31:42.035Z,90.08
2017-05-16T00:32:54.344Z,90.46
2017-05-16T00:34:07.199Z,90.17
2017-05-16T00:35:19.988Z,90.08
2017-05-16T00:36:32.770Z,90.56
2017-05-16T00:37:45.620Z,90.46
2017-05-16T00:38:58.608Z,90.94
2017-05-16T00:40:10.908Z,90.66
2017-05-16T00:41:23.688Z,91.09
2017-05-16T00:42:36.471Z,90.66
2017-05-16T00:43:48.824Z,91.04
2017-05-16T00:45:01.610Z,90.84
2017-05-16T00:46:13.908Z,91.04
2017-05-16T00:47:26.218Z,90.7
2017-05-16T00:48:39.010Z,91.19
2017-05-16T00:49:52.003Z,91.09
2017-05-16T00:51:04.791Z,91.28
2017-05-16T00:52:17.584Z,91.09
2017-05-16T00:53:29.896Z,90.99
2017-05-16T00:54:42.679Z,91.71
2017-05-16T00:55:55.459Z,90.9
2017-05-16T00:57:07.761Z,91.52
2017-05-16T00:58:20.542Z,91.47
2017-05-16T00:59:33.351Z,91.38
2017-05-16T01:00:46.145Z,91.47
2017-05-16T01:01:58.929Z,91.86
2017-05-16T01:03:11.718Z,92.05
2017-05-16T01:04:24.510Z,92.14
2017-05-16T01:05:37.537Z,91.96
2017-05-16T01:06:49.973Z,91.96
2017-05-16T01:08:02.897Z,92.33
2017-05-16T01:09:15.336Z,91.86
2017-05-16T01:10:28.277Z,91.76
2017-05-16T01:11:41.397Z,91.86
2017-05-16T01:12:54.326Z,91.86
2017-05-16T01:14:07.258Z,91.86
2017-05-16T01:15:20.187Z,91.47
2017-05-16T01:16:33.362Z,91.86
2017-05-16T01:17:46.285Z,92.14
2017-05-16T01:18:59.220Z,91.47
2017-05-16T01:20:11.656Z,92.33
2017-05-16T01:21:24.588Z,92.63
2017-05-16T01:22:37.275Z,92.91
2017-05-16T01:23:50.205Z,93.2
2017-05-16T01:25:03.136Z,93.1
2017-05-16T01:26:15.080Z,94.07
2017-05-16T01:27:28.250Z,94.12
2017-05-16T01:28:41.177Z,94.31
2017-05-16T01:29:54.112Z,94.98
2017-05-16T01:31:07.059Z,94.98
2017-05-16T01:32:19.984Z,94.88
2017-05-16T01:33:32.618Z,94.69
2017-05-16T01:34:45.553Z,94.79
2017-05-16T01:35:58.485Z,95.36
2017-05-16T01:37:10.922Z,95.46
2017-05-16T01:38:24.093Z,94.49
2017-05-16T01:39:35.550Z,95.46
2017-05-16T01:40:48.487Z,95.36
2017-05-16T01:42:01.372Z,94.98
2017-05-16T01:43:13.716Z,95.26
2017-05-16T01:44:40.577Z,95.46
2017-05-16T01:45:53.360Z,95.17
2017-05-16T01:47:06.150Z,95.17
2017-05-16T01:48:18.930Z,95.26
2017-05-16T01:49:31.714Z,95.26
2017-05-16T01:50:44.508Z,95.46
2017-05-16T01:51:56.820Z,95.36
2017-05-16T01:53:09.128Z,96.22
2017-05-16T01:54:21.907Z,96.13
2017-05-16T01:55:34.705Z,95.84
2017-05-16T01:56:47.498Z,95.75
2017-05-16T01:58:00.288Z,96.03
2017-05-16T01:59:12.596Z,95.94
2017-05-16T02:00:25.103Z,96.32
2017-05-16T02:01:37.895Z,96.22
2017-05-16T02:02:50.203Z,96.32
2017-05-16T02:04:03.044Z,96.89
2017-05-16T02:05:15.358Z,96.8
2017-05-16T02:06:28.142Z,96.61
2017-05-16T02:07:40.940Z,96.22
2017-05-16T02:08:53.793Z,96.42
2017-05-16T02:10:06.597Z,96.13
2017-05-16T02:11:19.441Z,96.22
2017-05-16T02:12:32.236Z,95.84
2017-05-16T02:13:45.023Z,95.84
2017-05-16T02:14:57.815Z,95.75
2017-05-16T02:16:10.896Z,96.13
2017-05-16T02:17:23.692Z,96.22
2017-05-16T02:18:36.006Z,96.22
2017-05-16T02:19:48.814Z,96.22
2017-05-16T02:21:01.617Z,95.84
2017-05-16T02:22:14.126Z,96.22
2017-05-16T02:23:26.911Z,95.84
2017-05-16T02:24:39.703Z,96.03
2017-05-16T02:25:52.484Z,96.13
2017-05-16T02:27:05.470Z,96.22
2017-05-16T02:28:18.263Z,96.42
2017-05-16T02:29:31.053Z,96.03
2017-05-16T02:30:43.355Z,95.46
2017-05-16T02:31:55.656Z,95.6
2017-05-16T02:33:08.648Z,95.75
2017-05-16T02:34:21.429Z,95.5
2017-05-16T02:35:34.226Z,95.17
2017-05-16T02:36:47.015Z,95.41
2017-05-16T02:37:59.805Z,95.65
2017-05-16T02:39:12.599Z,96.03
2017-05-16T02:40:25.379Z,96.22
2017-05-16T02:41:38.212Z,95.55
2017-05-16T02:42:51.010Z,95.94
2017-05-16T02:44:03.811Z,95.94
2017-05-16T02:45:16.592Z,95.84
2017-05-16T02:46:29.375Z,95.36
2017-05-16T02:47:42.161Z,95.46
2017-05-16T02:48:55.160Z,95.07
2017-05-16T02:50:07.943Z,95.65
2017-05-16T02:51:20.724Z,95.17
2017-05-16T02:52:33.513Z,95.75
2017-05-16T02:53:46.309Z,95.65
2017-05-16T02:54:59.299Z,95.36
2017-05-16T02:56:12.079Z,95.17
2017-05-16T02:57:24.859Z,95.17
2017-05-16T02:58:37.646Z,95.41
2017-05-16T02:59:50.633Z,94.54
2017-05-16T03:01:03.461Z,94.69
2017-05-16T03:02:16.387Z,94.02
2017-05-16T03:03:29.313Z,94.21
2017-05-16T03:04:42.236Z,94.16
2017-05-16T03:05:55.359Z,94.54
2017-05-16T03:07:08.277Z,94.07
2017-05-16T03:08:20.711Z,94.26
2017-05-16T03:09:33.141Z,94.4
2017-05-16T03:10:45.569Z,93.87
2017-05-16T03:11:58.484Z,93.77
2017-05-16T03:13:11.403Z,94.07
2017-05-16T03:14:24.366Z,93.87
2017-05-16T03:15:37.311Z,94.07
2017-05-16T03:17:03.987Z,94.26
2017-05-16T03:18:16.901Z,93.87
2017-05-16T03:19:28.842Z,93.77
2017-05-16T03:20:41.759Z,94.07
2017-05-16T03:21:54.979Z,94.07
2017-05-16T03:23:07.899Z,94.16
2017-05-16T03:24:20.814Z,93.2
2017-05-16T03:25:33.734Z,93.39
2017-05-16T03:26:46.666Z,93.97
2017-05-16T03:27:59.613Z,93.87
2017-05-16T03:29:12.618Z,93.97
2017-05-16T03:30:25.643Z,94.35
2017-05-16T03:31:38.562Z,93.87
2017-05-16T03:32:51.530Z,94.16
2017-05-16T03:34:03.960Z,93.1
2017-05-16T03:35:16.881Z,93.01
2017-05-16T03:36:28.825Z,93.1
2017-05-16T03:37:41.798Z,93.3
2017-05-16T03:38:54.915Z,93.39
2017-05-16T03:40:07.848Z,93.3
2017-05-16T03:41:20.767Z,93.39
2017-05-16T03:42:33.688Z,93.3
2017-05-16T03:43:46.811Z,93.2
2017-05-16T03:44:59.726Z,93.49
2017-05-16T03:46:12.068Z,93.87
2017-05-16T03:47:24.850Z,93.87
2017-05-16T03:48:37.631Z,93.39
2017-05-16T03:49:49.936Z,93.3
2017-05-16T03:51:02.719Z,94.07
2017-05-16T03:52:15.505Z,93.68
2017-05-16T03:53:28.287Z,93.68
2017-05-16T03:54:40.793Z,93.77
2017-05-16T03:55:53.580Z,93.87
2017-05-16T03:57:06.360Z,94.07
2017-05-16T03:58:19.144Z,94.26
2017-05-16T03:59:31.933Z,94.79
2017-05-16T04:00:44.713Z,94.98
2017-05-16T04:01:57.494Z,95.17
2017-05-16T04:03:10.289Z,94.88
2017-05-16T04:04:23.069Z,95.26
2017-05-16T04:05:49.924Z,95.36
2017-05-16T04:07:02.705Z,95.46
2017-05-16T04:08:15.488Z,96.13
2017-05-16T04:09:28.265Z,95.94
2017-05-16T04:10:41.349Z,96.51
2017-05-16T04:11:53.645Z,96.61
2017-05-16T04:13:06.428Z,97.09
2017-05-16T04:14:19.206Z,97.19
2017-05-16T04:15:31.995Z,97.19
2017-05-16T04:16:44.974Z,97.09
2017-05-16T04:17:57.758Z,97.14
2017-05-16T04:19:10.533Z,97.04
2017-05-16T04:20:22.827Z,96.99
2017-05-16T04:21:35.608Z,97.23
2017-05-16T04:22:48.390Z,96.85
2017-05-16T04:24:01.171Z,96.66
2017-05-16T04:25:13.473Z,97.14
2017-05-16T04:26:25.772Z,97.04
2017-05-16T04:27:38.552Z,96.94
2017-05-16T04:28:50.853Z,97.04
2017-05-16T04:30:03.636Z,96.32
2017-05-16T04:31:16.417Z,96.47
2017-05-16T04:32:28.914Z,96.75
2017-05-16T04:33:41.725Z,96.27
2017-05-16T04:34:54.506Z,96.66
2017-05-16T04:36:07.289Z,96.94
2017-05-16T04:37:19.587Z,96.56
2017-05-16T04:38:31.890Z,96.32
2017-05-16T04:39:44.669Z,96.13
2017-05-16T04:40:57.450Z,96.32
2017-05-16T04:42:09.752Z,96.13
2017-05-16T04:43:22.534Z,96.61
2017-05-16T04:44:35.315Z,96.47
2017-05-16T04:45:48.098Z,96.51
2017-05-16T04:47:00.878Z,96.32
2017-05-16T04:48:13.656Z,96.42
2017-05-16T04:49:26.732Z,96.03
2017-05-16T04:50:39.514Z,96.32
2017-05-16T04:51:52.297Z,96.22
2017-05-16T04:53:04.592Z,95.65
2017-05-16T04:54:17.087Z,94.98
2017-05-16T04:55:29.389Z,95.46
2017-05-16T04:56:42.169Z,95.46
2017-05-16T04:57:54.950Z,95.55
2017-05-16T04:59:07.731Z,95.46
2017-05-16T05:00:20.511Z,96.22
2017-05-16T05:01:33.286Z,95.84
2017-05-16T05:02:46.068Z,95.46
2017-05-16T05:03:58.367Z,94.98
2017-05-16T05:05:10.674Z,95.84
2017-05-16T05:06:22.972Z,95.84
2017-05-16T05:07:35.267Z,95.17
2017-05-16T05:08:48.044Z,95.07
2017-05-16T05:10:00.824Z,95.46
2017-05-16T05:11:13.125Z,95.46
2017-05-16T05:12:24.948Z,95.26
2017-05-16T05:13:37.249Z,95.26
2017-05-16T05:14:50.031Z,95.26
2017-05-16T05:16:02.855Z,95.07
2017-05-16T05:17:15.786Z,95.26
2017-05-16T05:18:28.699Z,96.42
2017-05-16T05:19:40.677Z,95.75
2017-05-16T05:20:53.741Z,95.94
2017-05-16T05:22:20.816Z,96.03
2017-05-16T05:23:33.883Z,96.32
2017-05-16T05:24:46.438Z,96.22
2017-05-16T05:25:59.500Z,95.75
2017-05-16T05:27:12.259Z,95.84
2017-05-16T05:28:24.818Z,96.42
2017-05-16T05:29:37.883Z,96.08
2017-05-16T05:30:50.940Z,96.22
2017-05-16T05:32:04.003Z,96.18
2017-05-16T05:33:16.060Z,96.66
2017-05-16T05:34:29.122Z,96.94
2017-05-16T05:35:42.176Z,97.14
2017-05-16T05:36:55.237Z,97.23
2017-05-16T05:38:08.295Z,96.66
2017-05-16T05:39:20.868Z,96.32
2017-05-16T05:40:33.434Z,97.04
2017-05-16T05:41:45.993Z,97.23
2017-05-16T05:42:59.350Z,96.75
2017-05-16T05:44:11.915Z,97.23
2017-05-16T05:45:24.972Z,97.23
2017-05-16T05:46:37.028Z,97.23
2017-05-16T05:47:50.087Z,96.85
2017-05-16T05:49:03.144Z,97.61
2017-05-16T05:50:15.700Z,97.61
2017-05-16T05:51:28.757Z,98.28
2017-05-16T05:52:41.323Z,97.52
2017-05-16T05:53:54.383Z,98.1
2017-05-16T05:55:06.903Z,98
2017-05-16T05:56:19.825Z,97.33
2017-05-16T05:57:32.742Z,98.19
2017-05-16T05:58:45.655Z,97.61
2017-05-16T05:59:58.575Z,97.9
2017-05-16T06:01:10.987Z,97.81
2017-05-16T06:02:23.882Z,97.04
2017-05-16T06:03:36.795Z,97.04
2017-05-16T06:04:49.895Z,97.33
2017-05-16T06:06:02.798Z,97.23
2017-05-16T06:07:14.714Z,97.04
2017-05-16T06:08:27.608Z,97.14
2017-05-16T06:09:40.501Z,97.14
2017-05-16T06:10:53.701Z,97.33
2017-05-16T06:12:06.104Z,97.23
2017-05-16T06:13:18.514Z,96.85
2017-05-16T06:14:31.409Z,96.85
2017-05-16T06:15:44.019Z,96.85
2017-05-16T06:16:56.919Z,97.14
2017-05-16T06:18:09.817Z,97.04
2017-05-16T06:19:22.220Z,96.56
2017-05-16T06:20:35.114Z,96.27
2017-05-16T06:21:48.310Z,96.37
2017-05-16T06:23:00.715Z,96.56
2017-05-16T06:24:12.636Z,96.08
2017-05-16T06:25:25.042Z,96.47
2017-05-16T06:26:37.938Z,96.47
2017-05-16T06:27:50.836Z,96.56
2017-05-16T06:29:03.734Z,96.94
2017-05-16T06:30:16.138Z,96.37
2017-05-16T06:31:28.548Z,97.04
2017-05-16T06:32:41.647Z,97.04
2017-05-16T06:33:54.550Z,97.04
2017-05-16T06:35:06.960Z,96.75
2017-05-16T06:36:19.856Z,96.66
2017-05-16T06:37:32.570Z,96.75
2017-05-16T06:38:45.470Z,97.14
2017-05-16T06:39:58.368Z,97.04
2017-05-16T06:41:10.302Z,96.94
2017-05-16T06:42:23.199Z,96.75
2017-05-16T06:43:36.397Z,96.85
2017-05-16T06:44:49.305Z,96.47
2017-05-16T06:46:02.212Z,96.66
2017-05-16T06:47:14.637Z,96.94
2017-05-16T06:48:27.555Z,97.04
2017-05-16T06:49:39.983Z,96.85
2017-05-16T06:50:52.901Z,96.94
2017-05-16T06:52:05.814Z,97.04
2017-05-16T06:53:18.737Z,96.56
2017-05-16T06:54:31.650Z,96.27
2017-05-16T06:55:44.076Z,96.27
2017-05-16T06:56:56.991Z,95.79
2017-05-16T06:58:09.419Z,95.7
2017-05-16T06:59:22.043Z,95.79
2017-05-16T07:00:34.467Z,95.79
2017-05-16T07:01:47.386Z,95.7
2017-05-16T07:02:59.810Z,95.79
2017-05-16T07:04:12.723Z,95.7
2017-05-16T07:05:25.155Z,96.56
2017-05-16T07:06:37.584Z,96.51
2017-05-16T07:07:50.498Z,96.7
2017-05-16T07:09:03.425Z,96.56
2017-05-16T07:10:16.152Z,96.8
2017-05-16T07:11:29.097Z,96.42
2017-05-16T07:12:42.018Z,95.89
2017-05-16T07:13:54.930Z,95.98
2017-05-16T07:15:07.358Z,96.13
2017-05-16T07:16:19.783Z,96.51
2017-05-16T07:17:32.212Z,96.51
2017-05-16T07:18:45.128Z,96.51
2017-05-16T07:19:58.044Z,96.22
2017-05-16T07:21:10.675Z,96.03
2017-05-16T07:22:23.592Z,96.13
2017-05-16T07:23:36.517Z,96.8
2017-05-16T07:24:49.437Z,96.8
2017-05-16T07:26:02.358Z,96.61
2017-05-16T07:27:15.575Z,96.7
2017-05-16T07:28:28.493Z,96.51
2017-05-16T07:29:40.918Z,96.22
2017-05-16T07:30:53.792Z,96.42
2017-05-16T07:32:06.568Z,96.61
2017-05-16T07:33:18.865Z,96.22
2017-05-16T07:34:30.687Z,96.22
2017-05-16T07:35:42.991Z,96.61
2017-05-16T07:36:55.776Z,96.51
2017-05-16T07:38:08.559Z,97.09
2017-05-16T07:39:20.866Z,96.61
2017-05-16T07:40:33.653Z,97.28
2017-05-16T07:41:45.951Z,96.42
2017-05-16T07:42:58.725Z,96.42
2017-05-16T07:44:10.545Z,96.8
2017-05-16T07:45:22.368Z,96.89
2017-05-16T07:46:34.243Z,96.99
2017-05-16T07:47:47.028Z,97.18
2017-05-16T07:49:00.111Z,96.61
2017-05-16T07:50:12.412Z,96.61
2017-05-16T07:51:24.711Z,96.99
2017-05-16T07:52:37.013Z,96.8
2017-05-16T07:53:49.316Z,97.18
2017-05-16T07:55:02.402Z,96.99
2017-05-16T07:56:15.179Z,96.51
2017-05-16T07:57:27.476Z,96.89
2017-05-16T07:58:40.258Z,96.61
2017-05-16T07:59:53.042Z,96.18
2017-05-16T08:01:05.829Z,95.94
2017-05-16T08:02:18.610Z,95.89
2017-05-16T08:03:30.908Z,95.94
2017-05-16T08:04:43.701Z,95.94
2017-05-16T08:05:56.490Z,96.51
2017-05-16T08:07:08.790Z,97.28
2017-05-16T08:08:21.569Z,96.99
2017-05-16T08:09:34.368Z,96.8
2017-05-16T08:10:47.353Z,96.89
2017-05-16T08:12:00.135Z,96.51
2017-05-16T08:13:12.918Z,95.75
2017-05-16T08:14:25.709Z,95.84
2017-05-16T08:15:38.493Z,96.13
2017-05-16T08:16:51.534Z,96.61
2017-05-16T08:18:04.320Z,96.8
2017-05-16T08:19:16.147Z,97.09
2017-05-16T08:20:28.997Z,96.22
2017-05-16T08:21:41.304Z,96.32
2017-05-16T08:22:54.090Z,96.61
2017-05-16T08:24:06.869Z,96.7
2017-05-16T08:25:19.180Z,96.22
2017-05-16T08:26:31.969Z,96.13
2017-05-16T08:27:45.055Z,96.32
2017-05-16T08:28:57.836Z,96.61
2017-05-16T08:30:10.671Z,97.09
2017-05-16T08:31:22.972Z,97.18
2017-05-16T08:32:49.347Z,96.99
2017-05-16T08:34:02.134Z,96.13
2017-05-16T08:35:14.920Z,96.42
2017-05-16T08:36:27.227Z,96.99
2017-05-16T08:37:40.222Z,96.51
2017-05-16T08:38:52.530Z,96.8
2017-05-16T08:40:05.316Z,97.18
2017-05-16T08:41:18.101Z,97.09
2017-05-16T08:42:30.889Z,97.28
2017-05-16T08:43:43.876Z,96.8
2017-05-16T08:44:56.657Z,96.89
2017-05-16T08:46:09.440Z,97.09
2017-05-16T08:47:22.226Z,96.99
2017-05-16T08:48:34.532Z,96.99
2017-05-16T08:49:47.320Z,96.7
2017-05-16T08:51:00.105Z,96.47
2017-05-16T08:52:12.901Z,96.08
2017-05-16T08:53:25.206Z,96.32
2017-05-16T08:54:37.715Z,96.22
2017-05-16T08:55:50.497Z,96.22
2017-05-16T08:57:03.285Z,96.18
2017-05-16T08:58:15.586Z,96.94
2017-05-16T08:59:28.372Z,96.32
2017-05-16T09:00:40.669Z,96.42
2017-05-16T09:01:52.982Z,96.51
2017-05-16T09:03:04.806Z,96.66
2017-05-16T09:04:16.626Z,96.56
2017-05-16T09:05:29.710Z,96.47
2017-05-16T09:06:42.017Z,96.47
2017-05-16T09:07:54.334Z,96.47
2017-05-16T09:09:06.641Z,95.79
2017-05-16T09:10:19.422Z,96.37
2017-05-16T09:11:32.400Z,96.56
2017-05-16T09:12:45.190Z,96.56
2017-05-16T09:13:57.490Z,96.37
2017-05-16T09:15:09.788Z,95.7
2017-05-16T09:16:22.866Z,96.56
2017-05-16T09:17:35.170Z,96.22
2017-05-16T09:18:47.959Z,96.61
2017-05-16T09:20:00.740Z,96.99
2017-05-16T09:21:13.041Z,97.09
2017-05-16T09:22:25.827Z,96.75
2017-05-16T09:23:38.621Z,96.8
2017-05-16T09:24:50.928Z,96.75
2017-05-16T09:26:03.715Z,96.47
2017-05-16T09:27:16.020Z,96.56
2017-05-16T09:28:28.812Z,96.66
2017-05-16T09:29:41.599Z,96.66
2017-05-16T09:30:54.374Z,96.66
2017-05-16T09:32:06.675Z,96.27
2017-05-16T09:33:19.665Z,96.47
2017-05-16T09:34:33.061Z,96.94
2017-05-16T09:35:45.840Z,96.47
2017-05-16T09:36:58.627Z,96.27
2017-05-16T09:38:10.926Z,96.18
2017-05-16T09:39:23.234Z,96.66
2017-05-16T09:40:36.018Z,96.37
2017-05-16T09:41:48.316Z,96.08
2017-05-16T09:43:00.637Z,96.85
2017-05-16T09:44:13.420Z,96.66
2017-05-16T09:45:26.250Z,96.66
2017-05-16T09:46:39.149Z,96.47
2017-05-16T09:47:51.571Z,96.56
2017-05-16T09:49:04.183Z,96.18
2017-05-16T09:50:15.608Z,96.08
2017-05-16T09:51:28.019Z,95.89
2017-05-16T09:52:40.932Z,95.7
2017-05-16T09:53:53.833Z,96.27
2017-05-16T09:55:06.442Z,95.75
2017-05-16T09:56:18.849Z,95.55
2017-05-16T09:57:31.745Z,95.41
2017-05-16T09:58:44.665Z,95.65
2017-05-16T09:59:57.564Z,95.12
2017-05-16T10:01:09.968Z,95.46
2017-05-16T10:02:22.370Z,95.41
2017-05-16T10:03:35.269Z,95.36
2017-05-16T10:04:48.175Z,95.26
2017-05-16T10:06:01.074Z,95.26
2017-05-16T10:07:13.484Z,95.41
2017-05-16T10:08:25.894Z,94.69
2017-05-16T10:09:38.793Z,95.46
2017-05-16T10:10:51.698Z,94.59
2017-05-16T10:12:04.600Z,95.07
2017-05-16T10:13:17.019Z,94.31
2017-05-16T10:14:28.449Z,94.49
2017-05-16T10:15:40.859Z,94.31
2017-05-16T10:16:53.755Z,94.21
2017-05-16T10:18:06.652Z,94.49
2017-05-16T10:19:19.563Z,94.4
2017-05-16T10:20:32.473Z,93.73
2017-05-16T10:21:45.078Z,93.82
2017-05-16T10:22:57.493Z,93.73
2017-05-16T10:24:09.909Z,93.73
2017-05-16T10:25:22.804Z,94.12
2017-05-16T10:26:35.707Z,93.63
2017-05-16T10:27:48.602Z,93.15
2017-05-16T10:29:01.497Z,93.35
2017-05-16T10:30:13.917Z,93.15
2017-05-16T10:31:26.322Z,93.06
2017-05-16T10:32:39.521Z,93.15
2017-05-16T10:33:51.932Z,92.86
2017-05-16T10:35:04.837Z,93.15
2017-05-16T10:36:16.739Z,92.86
2017-05-16T10:37:29.637Z,92.68
2017-05-16T10:39:53.756Z,92.58
2017-05-16T10:41:06.168Z,92.63
2017-05-16T10:42:19.074Z,92.77
2017-05-16T10:43:32.172Z,92.43
2017-05-16T10:44:44.582Z,92.29
2017-05-16T10:45:57.480Z,92.19
2017-05-16T10:47:10.384Z,92.19
2017-05-16T10:48:23.281Z,92.68
2017-05-16T10:49:36.380Z,92.29
2017-05-16T10:50:48.297Z,92.63
2017-05-16T10:52:00.708Z,92.63
2017-05-16T10:53:13.608Z,92.58
2017-05-16T10:54:26.014Z,92.33
2017-05-16T10:55:38.914Z,92.43
2017-05-16T10:56:51.324Z,92.33
2017-05-16T10:58:04.225Z,92.05
2017-05-16T10:59:16.682Z,92.05
2017-05-16T11:00:29.786Z,91.76
2017-05-16T11:01:42.679Z,92.14
2017-05-16T11:02:55.578Z,92.14
2017-05-16T11:04:07.995Z,91.86
2017-05-16T11:05:21.202Z,91.38
2017-05-16T11:06:33.607Z,91.47
2017-05-16T11:07:46.023Z,91.76
2017-05-16T11:08:58.922Z,91.57
2017-05-16T11:10:10.839Z,91.47
2017-05-16T11:11:23.448Z,90.9
2017-05-16T11:12:35.856Z,91.66
2017-05-16T11:13:48.263Z,91.38
2017-05-16T11:15:00.195Z,91.76
2017-05-16T11:16:12.628Z,91.47
2017-05-16T11:17:25.547Z,90.99
2017-05-16T11:18:38.467Z,91.47
2017-05-16T11:19:50.892Z,90.9
2017-05-16T11:21:03.811Z,90.32
2017-05-16T11:22:16.237Z,90.27
2017-05-16T11:23:29.162Z,90.22
2017-05-16T11:24:42.080Z,90.56
2017-05-16T11:25:54.513Z,90.27
2017-05-16T11:27:07.139Z,90.56
2017-05-16T11:28:19.565Z,90.17
2017-05-16T11:29:32.486Z,89.98
2017-05-16T11:30:45.406Z,89.6
2017-05-16T11:31:57.832Z,89.31
2017-05-16T11:33:10.268Z,89.4
2017-05-16T11:34:23.186Z,89.12
2017-05-16T11:35:35.610Z,88.97
2017-05-16T11:36:48.037Z,87.92
2017-05-16T11:38:00.461Z,87.24
2017-05-16T11:39:12.944Z,87.24
2017-05-16T11:40:25.864Z,87.15
2017-05-16T11:41:38.293Z,87.15
2017-05-16T11:42:51.215Z,86.47
2017-05-16T11:44:04.335Z,85.8
2017-05-16T11:45:17.257Z,86.13
2017-05-16T11:46:29.679Z,86.13
2017-05-16T11:47:42.600Z,85.46
2017-05-16T11:48:55.717Z,84.59
2017-05-16T11:50:07.650Z,84.78
2017-05-16T11:51:20.623Z,84.4
2017-05-16T11:52:33.593Z,84.4
2017-05-16T11:53:46.511Z,84.44
2017-05-16T11:54:59.630Z,84.44
2017-05-16T11:56:12.544Z,83.58
2017-05-16T11:57:25.461Z,82.71
2017-05-16T11:58:37.887Z,81.84
2017-05-16T11:59:50.319Z,81.94
2017-05-16T12:01:02.745Z,81.37
2017-05-16T12:02:15.663Z,81.46
2017-05-16T12:03:28.099Z,80.69
2017-05-16T12:04:40.533Z,80.88
2017-05-16T12:05:53.262Z,81.07
2017-05-16T12:07:05.694Z,81.46
2017-05-16T12:08:18.610Z,81.17
2017-05-16T12:09:31.526Z,80.88
2017-05-16T12:10:44.503Z,80.5
2017-05-16T12:11:57.422Z,80.4
2017-05-16T12:13:09.851Z,80.21
2017-05-16T12:14:22.276Z,80.02
2017-05-16T12:15:34.711Z,80.6
2017-05-16T12:16:46.955Z,81.07
2017-05-16T12:17:59.868Z,81.17
2017-05-16T12:19:12.303Z,80.21
2017-05-16T12:20:25.223Z,80.6
2017-05-16T12:21:37.655Z,79.92
2017-05-16T12:22:50.572Z,80.98
2017-05-16T12:24:02.997Z,81.07
2017-05-16T12:25:15.914Z,81.07
2017-05-16T12:26:28.827Z,80.6
2017-05-16T12:27:42.042Z,79.92
2017-05-16T12:28:54.962Z,80.15
2017-05-16T12:30:07.928Z,79.96
2017-05-16T12:31:20.860Z,79.92
2017-05-16T12:32:33.980Z,80.06
2017-05-16T12:33:46.408Z,80.15
2017-05-16T12:34:58.344Z,79.67
2017-05-16T12:36:11.261Z,79.19
2017-05-16T12:37:24.178Z,78.23
2017-05-16T12:38:36.805Z,78.13
2017-05-16T12:39:49.233Z,77.36
2017-05-16T12:41:02.161Z,77.46
2017-05-16T12:42:15.083Z,77.5
2017-05-16T12:43:27.509Z,77.94
2017-05-16T12:44:40.439Z,77.4
2017-05-16T12:45:52.867Z,77.31
2017-05-16T12:47:05.797Z,76.63
2017-05-16T12:48:18.711Z,76.34
2017-05-16T12:49:31.639Z,76.53
2017-05-16T12:50:44.062Z,76.25
2017-05-16T12:51:56.981Z,76.25
2017-05-16T12:53:09.900Z,76.15
2017-05-16T12:54:22.687Z,76.73
2017-05-16T12:55:35.605Z,77.21
2017-05-16T12:56:48.523Z,76.92
2017-05-16T12:58:01.439Z,77.5
2017-05-16T12:59:13.880Z,77.4
2017-05-16T13:00:26.801Z,77.21
2017-05-16T13:01:39.717Z,77.11
2017-05-16T13:02:52.144Z,76.92
2017-05-16T13:04:04.576Z,76.92
2017-05-16T13:05:16.509Z,77.21
2017-05-16T13:06:29.434Z,77.11
2017-05-16T13:07:42.351Z,77.5
2017-05-16T13:08:55.273Z,76.34
2017-05-16T13:10:07.701Z,76.06
2017-05-16T13:11:20.127Z,76.34
2017-05-16T13:12:33.100Z,75.76
2017-05-16T13:13:45.531Z,75.76
2017-05-16T13:14:58.667Z,75.76
2017-05-16T13:16:11.584Z,76.34
2017-05-16T13:17:23.522Z,76.15
2017-05-16T13:18:36.444Z,75.42
2017-05-16T13:19:49.379Z,74.07
2017-05-16T13:21:02.499Z,74.45
2017-05-16T13:22:15.417Z,74.26
2017-05-16T13:23:27.353Z,74.51
2017-05-16T13:24:40.274Z,74.93
2017-05-16T13:25:53.196Z,74.8
2017-05-16T13:27:06.122Z,74.99
2017-05-16T13:28:18.569Z,74.9
2017-05-16T13:29:31.503Z,74.9
2017-05-16T13:30:44.481Z,74.8
2017-05-16T13:31:57.387Z,75.28
2017-05-16T13:33:09.880Z,75.19
2017-05-16T13:34:22.778Z,75.76
2017-05-16T13:35:35.674Z,75.67
2017-05-16T13:36:48.574Z,74.93
2017-05-16T13:38:00.977Z,74.45
2017-05-16T13:39:13.880Z,74.07
2017-05-16T13:40:26.805Z,73.78
2017-05-16T13:41:39.904Z,74.16
2017-05-16T13:42:52.724Z,73.97
2017-05-16T13:44:05.827Z,74.26
2017-05-16T13:45:17.843Z,73.78
2017-05-16T13:46:30.868Z,73.68
2017-05-16T13:47:44.061Z,73.88
2017-05-16T13:48:57.123Z,74.2
2017-05-16T13:50:09.530Z,73.58
2017-05-16T13:51:22.470Z,74.01
2017-05-16T13:52:35.560Z,73.53
2017-05-16T13:53:48.471Z,72.95
2017-05-16T13:55:01.538Z,73.53
2017-05-16T13:56:14.539Z,73.05
2017-05-16T13:57:27.039Z,73.14
2017-05-16T13:58:39.717Z,73.24
2017-05-16T13:59:52.895Z,72.66
2017-05-16T14:01:05.945Z,72.56
2017-05-16T14:02:18.909Z,71.98
2017-05-16T14:03:31.536Z,71.89
2017-05-16T14:04:44.950Z,71.12
2017-05-16T14:05:58.129Z,70.67
2017-05-16T14:07:10.090Z,71.15
2017-05-16T14:08:22.711Z,70.92
2017-05-16T14:09:35.327Z,69.87
2017-05-16T14:10:48.232Z,69.9
2017-05-16T14:12:01.140Z,70.28
2017-05-16T14:13:13.551Z,70.38
2017-05-16T14:14:26.455Z,71.06
2017-05-16T14:15:39.373Z,71.34
2017-05-16T14:16:52.295Z,70
2017-05-16T14:18:04.239Z,69.8
2017-05-16T14:19:17.158Z,68.93
2017-05-16T14:20:29.948Z,68.84
2017-05-16T14:21:42.868Z,68.93
2017-05-16T14:22:55.300Z,70.09
2017-05-16T14:24:07.728Z,69.51
2017-05-16T14:25:20.174Z,69.32
2017-05-16T14:26:33.106Z,69.07
2017-05-16T14:27:46.027Z,69.42
2017-05-16T14:28:57.964Z,69.61
2017-05-16T14:30:10.408Z,69.71
2017-05-16T14:31:23.478Z,69.51
2017-05-16T14:32:36.398Z,70.28
2017-05-16T14:33:48.828Z,69.64
2017-05-16T14:35:01.744Z,69.71
2017-05-16T14:36:14.716Z,70.09
2017-05-16T14:37:27.636Z,70.76
2017-05-16T14:38:40.556Z,70.19
2017-05-16T14:39:53.475Z,70.13
2017-05-16T14:41:06.403Z,69.13
2017-05-16T14:42:19.322Z,69.61
2017-05-16T14:43:32.241Z,70.28
2017-05-16T14:44:45.164Z,69.9
2017-05-16T14:45:58.080Z,69.8
2017-05-16T14:47:10.022Z,69.71
2017-05-16T14:48:22.647Z,70.57
2017-05-16T14:49:35.575Z,70.28
2017-05-16T14:50:48.495Z,70.38
2017-05-16T14:52:01.419Z,69.51
2017-05-16T14:53:14.339Z,69.23
2017-05-16T14:54:27.258Z,68.93
2017-05-16T14:55:39.697Z,69.71
2017-05-16T14:56:52.618Z,70.76
2017-05-16T14:58:05.590Z,69.71
2017-05-16T14:59:18.020Z,69.67
2017-05-16T15:00:30.886Z,70.57
2017-05-16T15:01:43.674Z,70.38
2017-05-16T15:02:56.456Z,71.34
2017-05-16T15:04:08.756Z,70
2017-05-16T15:05:21.536Z,70.09
2017-05-16T15:06:34.319Z,70.28
2017-05-16T15:07:46.620Z,70.09
2017-05-16T15:08:59.404Z,69.42
2017-05-16T15:10:12.190Z,69.61
2017-05-16T15:11:24.971Z,69.9
2017-05-16T15:12:37.751Z,68.74
2017-05-16T15:13:50.543Z,69.29
2017-05-16T15:15:03.325Z,69.87
2017-05-16T15:16:16.110Z,71.02
2017-05-16T15:17:28.894Z,72.56
2017-05-16T15:18:40.723Z,72.37
2017-05-16T15:19:53.507Z,70.54
2017-05-16T15:21:06.010Z,70.83
2017-05-16T15:22:18.791Z,71.12
2017-05-16T15:23:31.571Z,71.6
2017-05-16T15:24:43.887Z,71.22
2017-05-16T15:25:56.668Z,70.64
2017-05-16T15:27:09.450Z,70.35
2017-05-16T15:28:22.242Z,69.96
2017-05-16T15:29:35.022Z,69.67
2017-05-16T15:30:47.323Z,69.29
2017-05-16T15:32:00.309Z,68.8
2017-05-16T15:33:12.614Z,68.8
2017-05-16T15:34:25.400Z,69.38
2017-05-16T15:35:38.189Z,69.48
2017-05-16T15:36:50.970Z,69.87
2017-05-16T15:38:03.272Z,70.96
2017-05-16T15:39:15.569Z,71.06
2017-05-16T15:40:27.390Z,69.61
2017-05-16T15:41:40.175Z,70.67